sensor_id;sensor_type;location;lat;lon;timestamp;P1;durP1;ratioP1;P2;durP2;ratioP2
20140;SDS011;10231;47.702;9.826;2022-10-20T00:01:07;11.97;;;8.93;;
20140;SDS011;10231;47.702;9.826;2022-10-20T00:03:33;12.20;;;8.90;;
20140;SDS011;10231;47.702;9.826;2022-10-20T00:06:09;12.27;;;9.90;;
20140;SDS011;10231;47.702;9.826;2022-10-20T00:08:37;11.37;;;9.93;;
20140;SDS011;10231;47.702;9.826;2022-10-20T00:11:03;12.77;;;9.70;;
20140;SDS011;10231;47.702;9.826;2022-10-20T00:13:29;14.37;;;9.50;;
20140;SDS011;10231;47.702;9.826;2022-10-20T00:15:55;10.17;;;9.13;;
20140;SDS011;10231;47.702;9.826;2022-10-20T00:18:22;11.00;;;9.60;;
20140;SDS011;10231;47.702;9.826;2022-10-20T00:20:48;11.23;;;8.80;;
20140;SDS011;10231;47.702;9.826;2022-10-20T00:23:15;10.00;;;9.00;;
20140;SDS011;10231;47.702;9.826;2022-10-20T00:25:40;9.47;;;7.90;;
20140;SDS011;10231;47.702;9.826;2022-10-20T00:28:06;11.37;;;8.20;;
20140;SDS011;10231;47.702;9.826;2022-10-20T00:30:32;11.27;;;7.97;;
20140;SDS011;10231;47.702;9.826;2022-10-20T00:32:58;12.33;;;8.60;;
20140;SDS011;10231;47.702;9.826;2022-10-20T00:35:24;9.83;;;8.00;;
20140;SDS011;10231;47.702;9.826;2022-10-20T00:37:50;11.20;;;8.50;;
20140;SDS011;10231;47.702;9.826;2022-10-20T00:40:15;15.13;;;9.70;;
20140;SDS011;10231;47.702;9.826;2022-10-20T00:42:44;12.43;;;9.43;;
20140;SDS011;10231;47.702;9.826;2022-10-20T00:45:14;24.43;;;9.67;;
20140;SDS011;10231;47.702;9.826;2022-10-20T00:47:48;11.27;;;9.47;;
20140;SDS011;10231;47.702;9.826;2022-10-20T00:50:28;12.63;;;9.70;;
20140;SDS011;10231;47.702;9.826;2022-10-20T00:52:56;10.73;;;9.37;;
20140;SDS011;10231;47.702;9.826;2022-10-20T00:55:24;10.70;;;9.17;;
20140;SDS011;10231;47.702;9.826;2022-10-20T00:57:53;13.27;;;9.97;;
20140;SDS011;10231;47.702;9.826;2022-10-20T01:00:21;10.67;;;9.57;;
20140;SDS011;10231;47.702;9.826;2022-10-20T01:02:49;13.90;;;9.47;;
20140;SDS011;10231;47.702;9.826;2022-10-20T01:05:17;11.27;;;9.83;;
20140;SDS011;10231;47.702;9.826;2022-10-20T01:07:43;13.27;;;9.40;;
20140;SDS011;10231;47.702;9.826;2022-10-20T01:10:09;10.33;;;9.17;;
20140;SDS011;10231;47.702;9.826;2022-10-20T01:12:52;10.37;;;8.57;;
20140;SDS011;10231;47.702;9.826;2022-10-20T01:15:40;10.00;;;9.00;;
20140;SDS011;10231;47.702;9.826;2022-10-20T01:23:45;10.57;;;9.57;;
20140;SDS011;10231;47.702;9.826;2022-10-20T01:32:17;11.00;;;9.90;;
20140;SDS011;10231;47.702;9.826;2022-10-20T01:37:28;9.73;;;8.57;;
20140;SDS011;10231;47.702;9.826;2022-10-20T01:40:16;11.27;;;9.10;;
20140;SDS011;10231;47.702;9.826;2022-10-20T01:43:00;11.83;;;9.20;;
20140;SDS011;10231;47.702;9.826;2022-10-20T01:45:30;9.57;;;7.97;;
20140;SDS011;10231;47.702;9.826;2022-10-20T01:48:00;10.87;;;8.50;;
20140;SDS011;10231;47.702;9.826;2022-10-20T01:50:28;12.40;;;9.50;;
20140;SDS011;10231;47.702;9.826;2022-10-20T01:52:56;8.60;;;7.67;;
20140;SDS011;10231;47.702;9.826;2022-10-20T01:55:22;10.00;;;8.50;;
20140;SDS011;10231;47.702;9.826;2022-10-20T02:00:35;9.17;;;8.23;;
20140;SDS011;10231;47.702;9.826;2022-10-20T02:03:08;10.57;;;8.30;;
20140;SDS011;10231;47.702;9.826;2022-10-20T02:08:56;9.60;;;8.00;;
20140;SDS011;10231;47.702;9.826;2022-10-20T02:11:35;9.50;;;8.50;;
20140;SDS011;10231;47.702;9.826;2022-10-20T02:14:10;8.53;;;7.73;;
20140;SDS011;10231;47.702;9.826;2022-10-20T02:16:39;13.07;;;7.47;;
20140;SDS011;10231;47.702;9.826;2022-10-20T02:19:10;8.23;;;7.53;;
20140;SDS011;10231;47.702;9.826;2022-10-20T02:21:38;7.43;;;6.73;;
20140;SDS011;10231;47.702;9.826;2022-10-20T02:24:05;8.57;;;7.30;;
20140;SDS011;10231;47.702;9.826;2022-10-20T02:26:33;11.97;;;7.70;;
20140;SDS011;10231;47.702;9.826;2022-10-20T02:29:02;8.20;;;7.40;;
20140;SDS011;10231;47.702;9.826;2022-10-20T02:31:34;9.70;;;6.70;;
20140;SDS011;10231;47.702;9.826;2022-10-20T02:33:59;9.37;;;8.47;;
20140;SDS011;10231;47.702;9.826;2022-10-20T02:36:27;8.77;;;7.53;;
20140;SDS011;10231;47.702;9.826;2022-10-20T02:38:53;12.23;;;7.70;;
20140;SDS011;10231;47.702;9.826;2022-10-20T02:41:19;10.83;;;8.30;;
20140;SDS011;10231;47.702;9.826;2022-10-20T02:43:45;9.77;;;8.57;;
20140;SDS011;10231;47.702;9.826;2022-10-20T02:46:11;13.30;;;10.13;;
20140;SDS011;10231;47.702;9.826;2022-10-20T02:48:36;13.03;;;10.20;;
20140;SDS011;10231;47.702;9.826;2022-10-20T02:51:03;13.37;;;9.97;;
20140;SDS011;10231;47.702;9.826;2022-10-20T02:53:30;14.47;;;11.07;;
20140;SDS011;10231;47.702;9.826;2022-10-20T02:55:56;14.00;;;10.57;;
20140;SDS011;10231;47.702;9.826;2022-10-20T02:58:22;16.73;;;12.33;;
20140;SDS011;10231;47.702;9.826;2022-10-20T03:00:48;12.70;;;10.57;;
20140;SDS011;10231;47.702;9.826;2022-10-20T03:03:14;17.37;;;10.57;;
20140;SDS011;10231;47.702;9.826;2022-10-20T03:05:41;17.27;;;11.10;;
20140;SDS011;10231;47.702;9.826;2022-10-20T03:08:08;13.83;;;11.77;;
20140;SDS011;10231;47.702;9.826;2022-10-20T03:10:34;14.33;;;12.17;;
20140;SDS011;10231;47.702;9.826;2022-10-20T03:13:01;17.30;;;12.13;;
20140;SDS011;10231;47.702;9.826;2022-10-20T03:15:27;12.83;;;11.43;;
20140;SDS011;10231;47.702;9.826;2022-10-20T03:17:53;13.50;;;11.43;;
20140;SDS011;10231;47.702;9.826;2022-10-20T03:20:18;14.00;;;11.00;;
20140;SDS011;10231;47.702;9.826;2022-10-20T03:22:44;11.83;;;10.70;;
20140;SDS011;10231;47.702;9.826;2022-10-20T03:25:10;11.93;;;10.63;;
20140;SDS011;10231;47.702;9.826;2022-10-20T03:27:35;12.30;;;10.57;;
20140;SDS011;10231;47.702;9.826;2022-10-20T03:30:01;12.07;;;10.80;;
20140;SDS011;10231;47.702;9.826;2022-10-20T03:32:27;11.00;;;9.90;;
20140;SDS011;10231;47.702;9.826;2022-10-20T03:34:52;10.93;;;9.83;;
20140;SDS011;10231;47.702;9.826;2022-10-20T03:37:18;10.70;;;9.70;;
20140;SDS011;10231;47.702;9.826;2022-10-20T03:39:43;11.20;;;9.93;;
20140;SDS011;10231;47.702;9.826;2022-10-20T03:42:09;10.83;;;9.73;;
20140;SDS011;10231;47.702;9.826;2022-10-20T03:44:35;11.47;;;10.00;;
20140;SDS011;10231;47.702;9.826;2022-10-20T03:47:00;10.57;;;9.57;;
20140;SDS011;10231;47.702;9.826;2022-10-20T03:49:26;11.53;;;10.43;;
20140;SDS011;10231;47.702;9.826;2022-10-20T03:51:51;10.83;;;9.83;;
20140;SDS011;10231;47.702;9.826;2022-10-20T03:54:17;12.83;;;10.63;;
20140;SDS011;10231;47.702;9.826;2022-10-20T03:56:42;11.03;;;10.03;;
20140;SDS011;10231;47.702;9.826;2022-10-20T03:59:09;10.70;;;9.63;;
20140;SDS011;10231;47.702;9.826;2022-10-20T04:01:35;10.40;;;9.50;;
20140;SDS011;10231;47.702;9.826;2022-10-20T04:04:01;10.70;;;9.70;;
20140;SDS011;10231;47.702;9.826;2022-10-20T04:06:27;10.10;;;8.90;;
20140;SDS011;10231;47.702;9.826;2022-10-20T04:08:52;10.23;;;9.23;;
20140;SDS011;10231;47.702;9.826;2022-10-20T04:11:18;9.70;;;8.73;;
20140;SDS011;10231;47.702;9.826;2022-10-20T04:13:43;10.63;;;9.53;;
20140;SDS011;10231;47.702;9.826;2022-10-20T04:16:09;10.43;;;9.43;;
20140;SDS011;10231;47.702;9.826;2022-10-20T04:18:34;9.90;;;9.00;;
20140;SDS011;10231;47.702;9.826;2022-10-20T04:21:00;10.40;;;9.43;;
20140;SDS011;10231;47.702;9.826;2022-10-20T04:23:26;10.00;;;9.00;;
20140;SDS011;10231;47.702;9.826;2022-10-20T04:25:51;10.63;;;9.63;;
20140;SDS011;10231;47.702;9.826;2022-10-20T04:28:18;10.00;;;9.10;;
20140;SDS011;10231;47.702;9.826;2022-10-20T04:30:44;10.57;;;9.57;;
20140;SDS011;10231;47.702;9.826;2022-10-20T04:33:10;10.07;;;9.07;;
20140;SDS011;10231;47.702;9.826;2022-10-20T04:35:37;10.37;;;9.40;;
20140;SDS011;10231;47.702;9.826;2022-10-20T04:38:03;10.70;;;9.70;;
20140;SDS011;10231;47.702;9.826;2022-10-20T04:40:29;10.43;;;9.50;;
20140;SDS011;10231;47.702;9.826;2022-10-20T04:42:54;10.63;;;9.63;;
20140;SDS011;10231;47.702;9.826;2022-10-20T04:45:22;10.23;;;9.23;;
20140;SDS011;10231;47.702;9.826;2022-10-20T04:47:47;11.53;;;10.50;;
20140;SDS011;10231;47.702;9.826;2022-10-20T04:50:13;13.17;;;10.10;;
20140;SDS011;10231;47.702;9.826;2022-10-20T04:52:39;11.70;;;10.60;;
20140;SDS011;10231;47.702;9.826;2022-10-20T04:55:04;10.73;;;9.70;;
20140;SDS011;10231;47.702;9.826;2022-10-20T04:57:30;12.53;;;10.90;;
20140;SDS011;10231;47.702;9.826;2022-10-20T04:59:55;10.83;;;9.77;;
20140;SDS011;10231;47.702;9.826;2022-10-20T05:02:21;12.10;;;10.83;;
20140;SDS011;10231;47.702;9.826;2022-10-20T05:04:48;14.57;;;9.87;;
20140;SDS011;10231;47.702;9.826;2022-10-20T05:07:14;12.30;;;11.10;;
20140;SDS011;10231;47.702;9.826;2022-10-20T05:09:40;12.10;;;9.93;;
20140;SDS011;10231;47.702;9.826;2022-10-20T05:12:05;13.87;;;10.90;;
20140;SDS011;10231;47.702;9.826;2022-10-20T05:14:31;11.53;;;10.33;;
20140;SDS011;10231;47.702;9.826;2022-10-20T05:16:57;11.87;;;10.63;;
20140;SDS011;10231;47.702;9.826;2022-10-20T05:19:22;11.50;;;10.40;;
20140;SDS011;10231;47.702;9.826;2022-10-20T05:21:48;11.40;;;9.90;;
20140;SDS011;10231;47.702;9.826;2022-10-20T05:24:14;12.47;;;11.20;;
20140;SDS011;10231;47.702;9.826;2022-10-20T05:26:41;14.33;;;10.50;;
20140;SDS011;10231;47.702;9.826;2022-10-20T05:29:07;37.60;;;28.73;;
20140;SDS011;10231;47.702;9.826;2022-10-20T05:31:38;21.97;;;18.47;;
20140;SDS011;10231;47.702;9.826;2022-10-20T05:34:06;15.70;;;12.20;;
20140;SDS011;10231;47.702;9.826;2022-10-20T05:36:32;23.93;;;13.13;;
20140;SDS011;10231;47.702;9.826;2022-10-20T05:38:57;17.77;;;11.50;;
20140;SDS011;10231;47.702;9.826;2022-10-20T05:41:24;17.67;;;12.67;;
20140;SDS011;10231;47.702;9.826;2022-10-20T05:43:53;14.73;;;12.13;;
20140;SDS011;10231;47.702;9.826;2022-10-20T05:46:24;12.93;;;11.53;;
20140;SDS011;10231;47.702;9.826;2022-10-20T05:48:51;14.10;;;11.73;;
20140;SDS011;10231;47.702;9.826;2022-10-20T05:51:20;12.67;;;11.47;;
20140;SDS011;10231;47.702;9.826;2022-10-20T05:53:47;11.83;;;10.63;;
20140;SDS011;10231;47.702;9.826;2022-10-20T05:56:14;12.10;;;10.80;;
20140;SDS011;10231;47.702;9.826;2022-10-20T05:58:41;10.73;;;9.73;;
20140;SDS011;10231;47.702;9.826;2022-10-20T06:01:09;11.10;;;10.00;;
20140;SDS011;10231;47.702;9.826;2022-10-20T06:03:41;11.90;;;10.63;;
20140;SDS011;10231;47.702;9.826;2022-10-20T06:06:11;14.37;;;10.20;;
20140;SDS011;10231;47.702;9.826;2022-10-20T06:08:36;11.90;;;10.77;;
20140;SDS011;10231;47.702;9.826;2022-10-20T06:11:03;11.37;;;10.17;;
20140;SDS011;10231;47.702;9.826;2022-10-20T06:13:30;12.67;;;10.83;;
20140;SDS011;10231;47.702;9.826;2022-10-20T06:16:03;11.10;;;9.93;;
20140;SDS011;10231;47.702;9.826;2022-10-20T06:18:30;14.30;;;11.07;;
20140;SDS011;10231;47.702;9.826;2022-10-20T06:21:00;10.97;;;9.87;;
20140;SDS011;10231;47.702;9.826;2022-10-20T06:23:27;10.07;;;9.07;;
20140;SDS011;10231;47.702;9.826;2022-10-20T06:25:53;10.03;;;9.13;;
20140;SDS011;10231;47.702;9.826;2022-10-20T06:28:18;10.73;;;9.70;;
20140;SDS011;10231;47.702;9.826;2022-10-20T06:30:44;12.03;;;10.23;;
20140;SDS011;10231;47.702;9.826;2022-10-20T06:33:09;10.20;;;9.30;;
20140;SDS011;10231;47.702;9.826;2022-10-20T06:35:38;10.20;;;9.30;;
20140;SDS011;10231;47.702;9.826;2022-10-20T06:38:04;9.80;;;8.67;;
20140;SDS011;10231;47.702;9.826;2022-10-20T06:40:30;9.20;;;7.93;;
20140;SDS011;10231;47.702;9.826;2022-10-20T06:42:55;8.73;;;8.00;;
20140;SDS011;10231;47.702;9.826;2022-10-20T06:45:21;8.40;;;7.67;;
20140;SDS011;10231;47.702;9.826;2022-10-20T06:47:46;7.93;;;7.23;;
20140;SDS011;10231;47.702;9.826;2022-10-20T06:50:12;8.13;;;7.37;;
20140;SDS011;10231;47.702;9.826;2022-10-20T06:52:37;8.17;;;7.47;;
20140;SDS011;10231;47.702;9.826;2022-10-20T06:55:03;7.47;;;6.83;;
20140;SDS011;10231;47.702;9.826;2022-10-20T06:57:31;7.47;;;6.87;;
20140;SDS011;10231;47.702;9.826;2022-10-20T06:59:57;7.80;;;7.20;;
20140;SDS011;10231;47.702;9.826;2022-10-20T07:02:22;7.73;;;7.07;;
20140;SDS011;10231;47.702;9.826;2022-10-20T07:04:48;7.90;;;7.30;;
20140;SDS011;10231;47.702;9.826;2022-10-20T07:07:14;6.17;;;5.77;;
20140;SDS011;10231;47.702;9.826;2022-10-20T07:09:40;7.33;;;6.63;;
20140;SDS011;10231;47.702;9.826;2022-10-20T07:12:05;7.13;;;6.60;;
20140;SDS011;10231;47.702;9.826;2022-10-20T07:14:31;6.93;;;6.33;;
20140;SDS011;10231;47.702;9.826;2022-10-20T07:16:56;7.27;;;6.63;;
20140;SDS011;10231;47.702;9.826;2022-10-20T07:19:22;7.07;;;6.43;;
20140;SDS011;10231;47.702;9.826;2022-10-20T07:21:47;7.30;;;6.60;;
20140;SDS011;10231;47.702;9.826;2022-10-20T07:24:13;6.70;;;6.00;;
20140;SDS011;10231;47.702;9.826;2022-10-20T07:26:40;6.97;;;6.30;;
20140;SDS011;10231;47.702;9.826;2022-10-20T07:29:06;7.40;;;6.77;;
20140;SDS011;10231;47.702;9.826;2022-10-20T07:31:37;6.93;;;6.33;;
20140;SDS011;10231;47.702;9.826;2022-10-20T07:34:05;7.37;;;6.33;;
20140;SDS011;10231;47.702;9.826;2022-10-20T07:36:33;6.37;;;5.77;;
20140;SDS011;10231;47.702;9.826;2022-10-20T07:38:59;6.50;;;5.93;;
20140;SDS011;10231;47.702;9.826;2022-10-20T07:41:26;6.87;;;6.20;;
20140;SDS011;10231;47.702;9.826;2022-10-20T07:43:52;6.53;;;6.03;;
20140;SDS011;10231;47.702;9.826;2022-10-20T07:46:19;7.23;;;6.47;;
20140;SDS011;10231;47.702;9.826;2022-10-20T07:48:45;6.47;;;5.83;;
20140;SDS011;10231;47.702;9.826;2022-10-20T07:51:23;6.87;;;6.20;;
20140;SDS011;10231;47.702;9.826;2022-10-20T07:56:20;9.20;;;6.30;;
20140;SDS011;10231;47.702;9.826;2022-10-20T07:58:46;7.43;;;6.73;;
20140;SDS011;10231;47.702;9.826;2022-10-20T08:01:13;6.37;;;5.87;;
20140;SDS011;10231;47.702;9.826;2022-10-20T08:03:38;7.57;;;5.47;;
20140;SDS011;10231;47.702;9.826;2022-10-20T08:06:04;7.17;;;5.93;;
20140;SDS011;10231;47.702;9.826;2022-10-20T08:08:31;6.30;;;5.80;;
20140;SDS011;10231;47.702;9.826;2022-10-20T08:10:56;6.10;;;5.60;;
20140;SDS011;10231;47.702;9.826;2022-10-20T08:13:26;6.70;;;5.63;;
20140;SDS011;10231;47.702;9.826;2022-10-20T08:15:52;6.60;;;5.80;;
20140;SDS011;10231;47.702;9.826;2022-10-20T08:18:18;6.17;;;5.63;;
20140;SDS011;10231;47.702;9.826;2022-10-20T08:20:44;5.70;;;5.10;;
20140;SDS011;10231;47.702;9.826;2022-10-20T08:23:13;7.17;;;5.50;;
20140;SDS011;10231;47.702;9.826;2022-10-20T08:25:40;8.47;;;5.70;;
20140;SDS011;10231;47.702;9.826;2022-10-20T08:28:06;6.13;;;5.63;;
20140;SDS011;10231;47.702;9.826;2022-10-20T08:30:32;4.97;;;4.57;;
20140;SDS011;10231;47.702;9.826;2022-10-20T08:32:57;5.50;;;5.00;;
20140;SDS011;10231;47.702;9.826;2022-10-20T08:35:23;5.07;;;4.60;;
20140;SDS011;10231;47.702;9.826;2022-10-20T08:37:49;4.80;;;4.40;;
20140;SDS011;10231;47.702;9.826;2022-10-20T08:40:15;6.80;;;4.43;;
20140;SDS011;10231;47.702;9.826;2022-10-20T08:42:48;7.53;;;5.67;;
20140;SDS011;10231;47.702;9.826;2022-10-20T08:45:16;4.80;;;4.40;;
20140;SDS011;10231;47.702;9.826;2022-10-20T08:47:44;7.00;;;4.50;;
20140;SDS011;10231;47.702;9.826;2022-10-20T08:50:12;4.67;;;4.27;;
20140;SDS011;10231;47.702;9.826;2022-10-20T08:52:41;5.70;;;4.30;;
20140;SDS011;10231;47.702;9.826;2022-10-20T08:55:18;4.87;;;3.80;;
20140;SDS011;10231;47.702;9.826;2022-10-20T08:57:50;4.10;;;3.80;;
20140;SDS011;10231;47.702;9.826;2022-10-20T09:02:44;8.70;;;6.53;;
20140;SDS011;10231;47.702;9.826;2022-10-20T09:05:11;7.50;;;6.50;;
20140;SDS011;10231;47.702;9.826;2022-10-20T09:07:39;8.83;;;6.67;;
20140;SDS011;10231;47.702;9.826;2022-10-20T09:10:27;9.70;;;7.10;;
20140;SDS011;10231;47.702;9.826;2022-10-20T09:13:01;10.07;;;7.73;;
20140;SDS011;10231;47.702;9.826;2022-10-20T09:15:31;9.97;;;7.77;;
20140;SDS011;10231;47.702;9.826;2022-10-20T09:18:01;9.87;;;7.80;;
20140;SDS011;10231;47.702;9.826;2022-10-20T09:20:33;8.43;;;7.57;;
20140;SDS011;10231;47.702;9.826;2022-10-20T09:23:21;8.43;;;7.50;;
20140;SDS011;10231;47.702;9.826;2022-10-20T09:25:49;9.17;;;7.03;;
20140;SDS011;10231;47.702;9.826;2022-10-20T09:28:19;11.27;;;6.37;;
20140;SDS011;10231;47.702;9.826;2022-10-20T09:30:52;7.40;;;6.67;;
20140;SDS011;10231;47.702;9.826;2022-10-20T09:33:20;7.93;;;5.90;;
20140;SDS011;10231;47.702;9.826;2022-10-20T09:36:01;8.73;;;6.20;;
20140;SDS011;10231;47.702;9.826;2022-10-20T09:38:36;8.57;;;5.67;;
20140;SDS011;10231;47.702;9.826;2022-10-20T09:41:09;7.03;;;5.77;;
20140;SDS011;10231;47.702;9.826;2022-10-20T09:43:48;6.13;;;5.53;;
20140;SDS011;10231;47.702;9.826;2022-10-20T09:46:20;7.00;;;6.30;;
20140;SDS011;10231;47.702;9.826;2022-10-20T09:48:48;8.40;;;5.63;;
20140;SDS011;10231;47.702;9.826;2022-10-20T09:51:25;8.10;;;6.33;;
20140;SDS011;10231;47.702;9.826;2022-10-20T09:54:05;7.80;;;6.20;;
20140;SDS011;10231;47.702;9.826;2022-10-20T09:56:40;7.70;;;6.30;;
20140;SDS011;10231;47.702;9.826;2022-10-20T09:59:26;8.73;;;7.03;;
20140;SDS011;10231;47.702;9.826;2022-10-20T10:01:59;9.63;;;8.60;;
20140;SDS011;10231;47.702;9.826;2022-10-20T10:04:33;10.20;;;8.67;;
20140;SDS011;10231;47.702;9.826;2022-10-20T10:07:00;11.73;;;8.80;;
20140;SDS011;10231;47.702;9.826;2022-10-20T10:09:29;12.30;;;9.27;;
20140;SDS011;10231;47.702;9.826;2022-10-20T10:14:47;13.90;;;9.70;;
20140;SDS011;10231;47.702;9.826;2022-10-20T10:22:40;13.47;;;10.70;;
20140;SDS011;10231;47.702;9.826;2022-10-20T10:25:07;13.27;;;10.60;;
20140;SDS011;10231;47.702;9.826;2022-10-20T10:27:43;12.80;;;10.97;;
20140;SDS011;10231;47.702;9.826;2022-10-20T10:32:53;15.87;;;13.50;;
20140;SDS011;10231;47.702;9.826;2022-10-20T10:35:23;15.87;;;13.90;;
20140;SDS011;10231;47.702;9.826;2022-10-20T10:37:52;17.03;;;13.80;;
20140;SDS011;10231;47.702;9.826;2022-10-20T10:40:20;19.13;;;14.47;;
20140;SDS011;10231;47.702;9.826;2022-10-20T10:45:41;17.00;;;14.67;;
20140;SDS011;10231;47.702;9.826;2022-10-20T10:51:00;18.30;;;14.50;;
20140;SDS011;10231;47.702;9.826;2022-10-20T10:59:01;21.10;;;13.87;;
20140;SDS011;10231;47.702;9.826;2022-10-20T11:04:25;16.97;;;14.27;;
20140;SDS011;10231;47.702;9.826;2022-10-20T11:07:15;18.27;;;13.33;;
20140;SDS011;10231;47.702;9.826;2022-10-20T11:24:13;18.07;;;12.97;;
20140;SDS011;10231;47.702;9.826;2022-10-20T11:26:44;19.47;;;12.87;;
20140;SDS011;10231;47.702;9.826;2022-10-20T11:35:02;18.53;;;13.50;;
20140;SDS011;10231;47.702;9.826;2022-10-20T11:47:50;18.80;;;14.43;;
20140;SDS011;10231;47.702;9.826;2022-10-20T11:50:21;17.30;;;14.17;;
20140;SDS011;10231;47.702;9.826;2022-10-20T12:01:37;19.10;;;15.47;;
20140;SDS011;10231;47.702;9.826;2022-10-20T12:09:45;18.70;;;15.27;;
20140;SDS011;10231;47.702;9.826;2022-10-20T12:12:27;18.43;;;15.00;;
20140;SDS011;10231;47.702;9.826;2022-10-20T12:15:17;18.90;;;14.80;;
20140;SDS011;10231;47.702;9.826;2022-10-20T12:17:48;20.87;;;14.83;;
20140;SDS011;10231;47.702;9.826;2022-10-20T12:22:45;16.13;;;14.43;;
20140;SDS011;10231;47.702;9.826;2022-10-20T12:30:56;22.33;;;15.07;;
20140;SDS011;10231;47.702;9.826;2022-10-20T12:36:22;17.43;;;14.30;;
20140;SDS011;10231;47.702;9.826;2022-10-20T12:39:11;17.70;;;14.53;;
20140;SDS011;10231;47.702;9.826;2022-10-20T12:41:53;18.20;;;13.83;;
20140;SDS011;10231;47.702;9.826;2022-10-20T12:44:25;21.63;;;14.73;;
20140;SDS011;10231;47.702;9.826;2022-10-20T12:47:02;20.43;;;14.77;;
20140;SDS011;10231;47.702;9.826;2022-10-20T12:49:37;20.13;;;14.43;;
20140;SDS011;10231;47.702;9.826;2022-10-20T12:52:07;19.70;;;14.03;;
20140;SDS011;10231;47.702;9.826;2022-10-20T12:54:43;16.33;;;13.23;;
20140;SDS011;10231;47.702;9.826;2022-10-20T13:00:03;19.47;;;13.13;;
20140;SDS011;10231;47.702;9.826;2022-10-20T13:02:32;17.70;;;13.63;;
20140;SDS011;10231;47.702;9.826;2022-10-20T13:15:30;15.20;;;11.43;;
20140;SDS011;10231;47.702;9.826;2022-10-20T13:23:12;13.57;;;10.60;;
20140;SDS011;10231;47.702;9.826;2022-10-20T13:25:44;12.23;;;9.47;;
20140;SDS011;10231;47.702;9.826;2022-10-20T13:30:57;15.10;;;10.80;;
20140;SDS011;10231;47.702;9.826;2022-10-20T13:36:21;15.83;;;11.10;;
20140;SDS011;10231;47.702;9.826;2022-10-20T13:39:22;13.23;;;9.60;;
20140;SDS011;10231;47.702;9.826;2022-10-20T13:44:55;13.13;;;9.40;;
20140;SDS011;10231;47.702;9.826;2022-10-20T13:47:45;14.80;;;10.00;;
20140;SDS011;10231;47.702;9.826;2022-10-20T13:50:30;12.00;;;9.70;;
20140;SDS011;10231;47.702;9.826;2022-10-20T13:53:00;12.60;;;9.23;;
20140;SDS011;10231;47.702;9.826;2022-10-20T13:55:51;12.23;;;10.10;;
20140;SDS011;10231;47.702;9.826;2022-10-20T13:58:31;15.07;;;9.37;;
20140;SDS011;10231;47.702;9.826;2022-10-20T14:00:59;9.57;;;8.23;;
20140;SDS011;10231;47.702;9.826;2022-10-20T14:03:25;11.93;;;9.10;;
20140;SDS011;10231;47.702;9.826;2022-10-20T14:05:51;11.97;;;8.43;;
20140;SDS011;10231;47.702;9.826;2022-10-20T14:08:18;12.03;;;9.37;;
20140;SDS011;10231;47.702;9.826;2022-10-20T14:10:48;11.77;;;9.07;;
20140;SDS011;10231;47.702;9.826;2022-10-20T14:13:18;13.37;;;9.33;;
20140;SDS011;10231;47.702;9.826;2022-10-20T14:15:47;10.43;;;8.10;;
20140;SDS011;10231;47.702;9.826;2022-10-20T14:18:19;9.03;;;8.07;;
20140;SDS011;10231;47.702;9.826;2022-10-20T14:20:55;9.80;;;8.67;;
20140;SDS011;10231;47.702;9.826;2022-10-20T14:23:27;10.57;;;7.80;;
20140;SDS011;10231;47.702;9.826;2022-10-20T14:26:01;13.03;;;8.33;;
20140;SDS011;10231;47.702;9.826;2022-10-20T14:28:30;10.70;;;7.63;;
20140;SDS011;10231;47.702;9.826;2022-10-20T14:30:59;12.60;;;8.20;;
20140;SDS011;10231;47.702;9.826;2022-10-20T14:33:25;11.60;;;7.40;;
20140;SDS011;10231;47.702;9.826;2022-10-20T14:35:52;11.90;;;8.20;;
20140;SDS011;10231;47.702;9.826;2022-10-20T14:38:31;11.53;;;8.67;;
20140;SDS011;10231;47.702;9.826;2022-10-20T14:41:01;11.67;;;9.20;;
20140;SDS011;10231;47.702;9.826;2022-10-20T14:43:37;11.73;;;8.97;;
20140;SDS011;10231;47.702;9.826;2022-10-20T14:46:08;11.10;;;9.37;;
20140;SDS011;10231;47.702;9.826;2022-10-20T14:48:36;12.20;;;8.57;;
20140;SDS011;10231;47.702;9.826;2022-10-20T14:54:13;12.73;;;9.33;;
20140;SDS011;10231;47.702;9.826;2022-10-20T14:56:49;13.53;;;8.40;;
20140;SDS011;10231;47.702;9.826;2022-10-20T14:59:23;11.40;;;8.53;;
20140;SDS011;10231;47.702;9.826;2022-10-20T15:04:40;15.60;;;7.57;;
20140;SDS011;10231;47.702;9.826;2022-10-20T15:09:56;13.73;;;8.00;;
20140;SDS011;10231;47.702;9.826;2022-10-20T15:12:45;13.70;;;8.63;;
20140;SDS011;10231;47.702;9.826;2022-10-20T15:17:44;13.53;;;9.53;;
20140;SDS011;10231;47.702;9.826;2022-10-20T15:25:37;12.50;;;10.00;;
20140;SDS011;10231;47.702;9.826;2022-10-20T15:33:37;15.40;;;9.53;;
20140;SDS011;10231;47.702;9.826;2022-10-20T15:36:07;15.20;;;9.30;;
20140;SDS011;10231;47.702;9.826;2022-10-20T15:38:41;13.27;;;8.00;;
20140;SDS011;10231;47.702;9.826;2022-10-20T15:41:08;12.90;;;8.53;;
20140;SDS011;10231;47.702;9.826;2022-10-20T15:43:43;12.30;;;8.27;;
20140;SDS011;10231;47.702;9.826;2022-10-20T15:46:10;14.70;;;8.57;;
20140;SDS011;10231;47.702;9.826;2022-10-20T15:48:36;11.53;;;8.47;;
20140;SDS011;10231;47.702;9.826;2022-10-20T15:51:01;10.23;;;7.83;;
20140;SDS011;10231;47.702;9.826;2022-10-20T15:53:27;11.10;;;7.97;;
20140;SDS011;10231;47.702;9.826;2022-10-20T15:55:53;10.03;;;8.17;;
20140;SDS011;10231;47.702;9.826;2022-10-20T15:58:19;11.47;;;8.67;;
20140;SDS011;10231;47.702;9.826;2022-10-20T16:00:44;12.37;;;9.03;;
20140;SDS011;10231;47.702;9.826;2022-10-20T16:03:12;12.63;;;10.53;;
20140;SDS011;10231;47.702;9.826;2022-10-20T16:05:41;13.80;;;10.30;;
20140;SDS011;10231;47.702;9.826;2022-10-20T16:08:06;11.63;;;9.77;;
20140;SDS011;10231;47.702;9.826;2022-10-20T16:10:32;10.37;;;9.33;;
20140;SDS011;10231;47.702;9.826;2022-10-20T16:12:58;10.30;;;8.83;;
20140;SDS011;10231;47.702;9.826;2022-10-20T16:15:23;10.83;;;9.00;;
20140;SDS011;10231;47.702;9.826;2022-10-20T16:17:50;13.53;;;8.10;;
20140;SDS011;10231;47.702;9.826;2022-10-20T16:20:16;13.00;;;8.13;;
20140;SDS011;10231;47.702;9.826;2022-10-20T16:22:41;13.43;;;9.53;;
20140;SDS011;10231;47.702;9.826;2022-10-20T16:25:07;21.80;;;11.03;;
20140;SDS011;10231;47.702;9.826;2022-10-20T16:27:33;15.17;;;11.30;;
20140;SDS011;10231;47.702;9.826;2022-10-20T16:29:59;14.47;;;10.40;;
20140;SDS011;10231;47.702;9.826;2022-10-20T16:32:25;14.87;;;10.17;;
20140;SDS011;10231;47.702;9.826;2022-10-20T16:34:51;13.70;;;9.70;;
20140;SDS011;10231;47.702;9.826;2022-10-20T16:37:17;12.57;;;9.80;;
20140;SDS011;10231;47.702;9.826;2022-10-20T16:39:42;18.63;;;13.33;;
20140;SDS011;10231;47.702;9.826;2022-10-20T16:42:08;20.33;;;10.70;;
20140;SDS011;10231;47.702;9.826;2022-10-20T16:44:33;13.53;;;10.53;;
20140;SDS011;10231;47.702;9.826;2022-10-20T16:46:59;13.27;;;10.60;;
20140;SDS011;10231;47.702;9.826;2022-10-20T16:49:24;23.33;;;13.13;;
20140;SDS011;10231;47.702;9.826;2022-10-20T16:51:50;25.23;;;13.73;;
20140;SDS011;10231;47.702;9.826;2022-10-20T16:54:16;18.87;;;13.90;;
20140;SDS011;10231;47.702;9.826;2022-10-20T16:56:42;17.87;;;13.07;;
20140;SDS011;10231;47.702;9.826;2022-10-20T16:59:09;19.67;;;12.03;;
20140;SDS011;10231;47.702;9.826;2022-10-20T17:01:34;17.57;;;12.20;;
20140;SDS011;10231;47.702;9.826;2022-10-20T17:04:00;18.30;;;12.53;;
20140;SDS011;10231;47.702;9.826;2022-10-20T17:06:25;18.93;;;13.00;;
20140;SDS011;10231;47.702;9.826;2022-10-20T17:08:51;15.70;;;12.50;;
20140;SDS011;10231;47.702;9.826;2022-10-20T17:11:22;14.77;;;12.80;;
20140;SDS011;10231;47.702;9.826;2022-10-20T17:13:49;16.43;;;13.03;;
20140;SDS011;10231;47.702;9.826;2022-10-20T17:16:17;19.67;;;13.30;;
20140;SDS011;10231;47.702;9.826;2022-10-20T17:18:44;17.53;;;13.27;;